sensor_id;sensor_type;location;lat;lon;timestamp;temperature;humidity
11559;DHT22;5835;42.930;25.178;2024-03-08T00:00:46;5.10;99.90
11559;DHT22;5835;42.930;25.178;2024-03-08T00:03:13;5.10;99.90
11559;DHT22;5835;42.930;25.178;2024-03-08T00:05:41;5.00;99.90
11559;DHT22;5835;42.930;25.178;2024-03-08T00:08:08;5.10;99.90
11559;DHT22;5835;42.930;25.178;2024-03-08T00:10:36;5.10;99.90
11559;DHT22;5835;42.930;25.178;2024-03-08T00:13:06;5.00;99.90
11559;DHT22;5835;42.930;25.178;2024-03-08T00:15:33;5.10;99.90
11559;DHT22;5835;42.930;25.178;2024-03-08T00:18:00;5.10;99.90
11559;DHT22;5835;42.930;25.178;2024-03-08T00:20:28;5.00;99.90
11559;DHT22;5835;42.930;25.178;2024-03-08T00:22:55;5.00;99.90
11559;DHT22;5835;42.930;25.178;2024-03-08T00:25:24;4.90;99.90
11559;DHT22;5835;42.930;25.178;2024-03-08T00:27:51;4.90;99.90
11559;DHT22;5835;42.930;25.178;2024-03-08T00:30:23;4.90;99.90
11559;DHT22;5835;42.930;25.178;2024-03-08T00:32:51;4.80;99.90
11559;DHT22;5835;42.930;25.178;2024-03-08T00:35:18;4.80;99.90
11559;DHT22;5835;42.930;25.178;2024-03-08T00:37:46;4.80;99.90
11559;DHT22;5835;42.930;25.178;2024-03-08T00:40:14;4.80;99.90
11559;DHT22;5835;42.930;25.178;2024-03-08T00:42:42;4.80;99.90
11559;DHT22;5835;42.930;25.178;2024-03-08T00:45:11;4.80;99.90
11559;DHT22;5835;42.930;25.178;2024-03-08T00:47:40;4.90;99.90
11559;DHT22;5835;42.930;25.178;2024-03-08T00:50:10;4.90;99.90
11559;DHT22;5835;42.930;25.178;2024-03-08T00:52:38;4.80;99.90
11559;DHT22;5835;42.930;25.178;2024-03-08T00:55:07;4.90;99.90
11559;DHT22;5835;42.930;25.178;2024-03-08T00:57:36;4.90;99.90
11559;DHT22;5835;42.930;25.178;2024-03-08T01:00:05;4.90;99.90
11559;DHT22;5835;42.930;25.178;2024-03-08T01:02:37;4.90;99.90
11559;DHT22;5835;42.930;25.178;2024-03-08T01:05:07;4.90;99.90
11559;DHT22;5835;42.930;25.178;2024-03-08T01:07:35;4.80;99.90
11559;DHT22;5835;42.930;25.178;2024-03-08T01:10:22;4.70;99.90
11559;DHT22;5835;42.930;25.178;2024-03-08T01:12:50;4.80;99.90
11559;DHT22;5835;42.930;25.178;2024-03-08T01:15:17;4.80;99.90
11559;DHT22;5835;42.930;25.178;2024-03-08T01:17:45;4.80;99.90
11559;DHT22;5835;42.930;25.178;2024-03-08T01:20:15;4.80;99.90
11559;DHT22;5835;42.930;25.178;2024-03-08T01:22:43;4.80;99.90
11559;DHT22;5835;42.930;25.178;2024-03-08T01:25:11;4.80;99.90
11559;DHT22;5835;42.930;25.178;2024-03-08T01:27:38;4.90;99.90
11559;DHT22;5835;42.930;25.178;2024-03-08T01:30:06;4.70;99.90
11559;DHT22;5835;42.930;25.178;2024-03-08T01:32:35;4.80;99.90
11559;DHT22;5835;42.930;25.178;2024-03-08T01:35:03;4.70;99.90
11559;DHT22;5835;42.930;25.178;2024-03-08T01:37:32;4.80;99.90
11559;DHT22;5835;42.930;25.178;2024-03-08T01:40:00;4.70;99.90
11559;DHT22;5835;42.930;25.178;2024-03-08T01:42:28;4.70;99.90
11559;DHT22;5835;42.930;25.178;2024-03-08T01:44:56;4.80;99.90
11559;DHT22;5835;42.930;25.178;2024-03-08T01:47:24;4.80;99.90
11559;DHT22;5835;42.930;25.178;2024-03-08T01:49:52;4.80;99.90
11559;DHT22;5835;42.930;25.178;2024-03-08T01:52:20;4.70;99.90
11559;DHT22;5835;42.930;25.178;2024-03-08T01:54:51;4.70;99.90
11559;DHT22;5835;42.930;25.178;2024-03-08T01:57:18;4.70;99.90
11559;DHT22;5835;42.930;25.178;2024-03-08T01:59:46;4.70;99.90
11559;DHT22;5835;42.930;25.178;2024-03-08T02:02:18;4.70;99.90
11559;DHT22;5835;42.930;25.178;2024-03-08T02:04:47;4.70;99.90
11559;DHT22;5835;42.930;25.178;2024-03-08T02:07:14;4.70;99.90
11559;DHT22;5835;42.930;25.178;2024-03-08T02:09:42;4.60;99.90
11559;DHT22;5835;42.930;25.178;2024-03-08T02:15:54;4.80;99.90
11559;DHT22;5835;42.930;25.178;2024-03-08T02:18:23;4.80;99.90
11559;DHT22;5835;42.930;25.178;2024-03-08T02:20:52;4.70;99.90
11559;DHT22;5835;42.930;25.178;2024-03-08T02:23:20;4.70;99.90
11559;DHT22;5835;42.930;25.178;2024-03-08T02:25:47;4.70;99.90
11559;DHT22;5835;42.930;25.178;2024-03-08T02:28:15;4.80;99.90
11559;DHT22;5835;42.930;25.178;2024-03-08T02:30:44;4.80;99.90
11559;DHT22;5835;42.930;25.178;2024-03-08T02:33:13;4.80;99.90
11559;DHT22;5835;42.930;25.178;2024-03-08T02:35:42;5.10;99.90
11559;DHT22;5835;42.930;25.178;2024-03-08T02:38:13;5.10;99.90
11559;DHT22;5835;42.930;25.178;2024-03-08T02:40:42;5.10;99.90
11559;DHT22;5835;42.930;25.178;2024-03-08T02:43:10;5.20;99.90
11559;DHT22;5835;42.930;25.178;2024-03-08T02:45:38;5.10;99.90
11559;DHT22;5835;42.930;25.178;2024-03-08T02:48:06;5.00;99.90
11559;DHT22;5835;42.930;25.178;2024-03-08T02:50:34;5.00;99.90
11559;DHT22;5835;42.930;25.178;2024-03-08T02:53:02;5.10;99.90
11559;DHT22;5835;42.930;25.178;2024-03-08T02:55:31;5.10;99.90
11559;DHT22;5835;42.930;25.178;2024-03-08T02:58:01;5.00;99.90
11559;DHT22;5835;42.930;25.178;2024-03-08T03:00:29;4.90;99.90
11559;DHT22;5835;42.930;25.178;2024-03-08T03:02:58;5.00;99.90
11559;DHT22;5835;42.930;25.178;2024-03-08T03:05:25;4.90;99.90
11559;DHT22;5835;42.930;25.178;2024-03-08T03:07:53;4.80;99.90
11559;DHT22;5835;42.930;25.178;2024-03-08T03:10:20;4.80;99.90
11559;DHT22;5835;42.930;25.178;2024-03-08T03:12:50;4.80;99.90
11559;DHT22;5835;42.930;25.178;2024-03-08T03:15:18;4.80;99.90
11559;DHT22;5835;42.930;25.178;2024-03-08T03:17:46;4.80;99.90
11559;DHT22;5835;42.930;25.178;2024-03-08T03:20:15;4.80;99.90
11559;DHT22;5835;42.930;25.178;2024-03-08T03:22:48;4.90;99.90
11559;DHT22;5835;42.930;25.178;2024-03-08T03:25:18;5.00;99.90
11559;DHT22;5835;42.930;25.178;2024-03-08T03:27:52;5.10;99.90
11559;DHT22;5835;42.930;25.178;2024-03-08T03:30:22;5.10;99.90
11559;DHT22;5835;42.930;25.178;2024-03-08T03:32:52;5.00;99.90
11559;DHT22;5835;42.930;25.178;2024-03-08T03:35:20;5.00;99.90
11559;DHT22;5835;42.930;25.178;2024-03-08T03:37:48;5.10;99.90
11559;DHT22;5835;42.930;25.178;2024-03-08T03:40:27;5.20;99.90
11559;DHT22;5835;42.930;25.178;2024-03-08T03:42:56;5.30;99.90
11559;DHT22;5835;42.930;25.178;2024-03-08T03:45:24;5.30;99.90
11559;DHT22;5835;42.930;25.178;2024-03-08T03:47:51;5.30;99.90
11559;DHT22;5835;42.930;25.178;2024-03-08T03:50:19;5.30;99.90
11559;DHT22;5835;42.930;25.178;2024-03-08T03:52:46;5.40;99.90
11559;DHT22;5835;42.930;25.178;2024-03-08T03:55:14;5.40;99.90
11559;DHT22;5835;42.930;25.178;2024-03-08T03:57:43;5.30;99.90
11559;DHT22;5835;42.930;25.178;2024-03-08T04:00:13;5.30;99.90
11559;DHT22;5835;42.930;25.178;2024-03-08T04:02:41;5.20;99.90
11559;DHT22;5835;42.930;25.178;2024-03-08T04:05:10;5.10;99.90
11559;DHT22;5835;42.930;25.178;2024-03-08T04:07:38;4.90;99.90
11559;DHT22;5835;42.930;25.178;2024-03-08T04:10:08;4.60;99.90
11559;DHT22;5835;42.930;25.178;2024-03-08T04:12:37;4.30;99.90
11559;DHT22;5835;42.930;25.178;2024-03-08T04:15:05;4.20;99.90
11559;DHT22;5835;42.930;25.178;2024-03-08T04:17:35;4.20;99.90
11559;DHT22;5835;42.930;25.178;2024-03-08T04:20:03;4.00;99.90
11559;DHT22;5835;42.930;25.178;2024-03-08T04:22:36;4.00;99.90
11559;DHT22;5835;42.930;25.178;2024-03-08T04:25:04;4.00;99.90
11559;DHT22;5835;42.930;25.178;2024-03-08T04:27:32;4.00;99.90
11559;DHT22;5835;42.930;25.178;2024-03-08T04:30:00;3.90;99.90
11559;DHT22;5835;42.930;25.178;2024-03-08T04:32:27;4.00;99.90
11559;DHT22;5835;42.930;25.178;2024-03-08T04:34:57;3.90;99.90
11559;DHT22;5835;42.930;25.178;2024-03-08T04:37:27;3.90;99.90
11559;DHT22;5835;42.930;25.178;2024-03-08T04:39:55;4.00;99.90
11559;DHT22;5835;42.930;25.178;2024-03-08T04:42:23;4.00;99.90
11559;DHT22;5835;42.930;25.178;2024-03-08T04:44:51;4.10;99.90
11559;DHT22;5835;42.930;25.178;2024-03-08T04:47:19;4.10;99.90
11559;DHT22;5835;42.930;25.178;2024-03-08T04:49:46;4.20;99.90
11559;DHT22;5835;42.930;25.178;2024-03-08T04:52:16;4.20;99.90
11559;DHT22;5835;42.930;25.178;2024-03-08T04:54:43;4.20;99.90
11559;DHT22;5835;42.930;25.178;2024-03-08T04:57:11;3.90;99.90
11559;DHT22;5835;42.930;25.178;2024-03-08T04:59:39;4.00;99.90
11559;DHT22;5835;42.930;25.178;2024-03-08T05:02:06;4.00;99.90
11559;DHT22;5835;42.930;25.178;2024-03-08T05:04:34;4.00;99.90
11559;DHT22;5835;42.930;25.178;2024-03-08T05:07:02;3.90;99.90
11559;DHT22;5835;42.930;25.178;2024-03-08T05:09:31;3.90;99.90
11559;DHT22;5835;42.930;25.178;2024-03-08T05:12:02;3.80;99.90
11559;DHT22;5835;42.930;25.178;2024-03-08T05:14:29;3.80;99.90
11559;DHT22;5835;42.930;25.178;2024-03-08T05:16:56;3.80;99.90
11559;DHT22;5835;42.930;25.178;2024-03-08T05:19:24;3.80;99.90
11559;DHT22;5835;42.930;25.178;2024-03-08T05:21:51;3.70;99.90
11559;DHT22;5835;42.930;25.178;2024-03-08T05:24:19;3.70;99.90
11559;DHT22;5835;42.930;25.178;2024-03-08T05:26:48;3.70;99.90
11559;DHT22;5835;42.930;25.178;2024-03-08T05:29:16;3.70;99.90
11559;DHT22;5835;42.930;25.178;2024-03-08T05:31:47;3.70;99.90
11559;DHT22;5835;42.930;25.178;2024-03-08T05:34:15;3.70;99.90
11559;DHT22;5835;42.930;25.178;2024-03-08T05:36:43;3.70;99.90
11559;DHT22;5835;42.930;25.178;2024-03-08T05:39:12;3.80;99.90
11559;DHT22;5835;42.930;25.178;2024-03-08T05:41:39;3.60;99.90
11559;DHT22;5835;42.930;25.178;2024-03-08T05:44:09;3.60;99.90
11559;DHT22;5835;42.930;25.178;2024-03-08T05:46:37;3.60;99.90
11559;DHT22;5835;42.930;25.178;2024-03-08T05:49:05;3.70;99.90
11559;DHT22;5835;42.930;25.178;2024-03-08T05:51:33;3.70;99.90
11559;DHT22;5835;42.930;25.178;2024-03-08T05:54:01;3.60;99.90
11559;DHT22;5835;42.930;25.178;2024-03-08T05:56:29;3.60;99.90
11559;DHT22;5835;42.930;25.178;2024-03-08T05:58:57;3.60;99.90
11559;DHT22;5835;42.930;25.178;2024-03-08T06:01:27;3.60;99.90
11559;DHT22;5835;42.930;25.178;2024-03-08T06:03:55;3.60;99.90
11559;DHT22;5835;42.930;25.178;2024-03-08T06:06:23;3.60;99.90
11559;DHT22;5835;42.930;25.178;2024-03-08T06:08:51;3.60;99.90
11559;DHT22;5835;42.930;25.178;2024-03-08T06:11:20;3.50;99.90
11559;DHT22;5835;42.930;25.178;2024-03-08T06:13:48;3.50;99.90
11559;DHT22;5835;42.930;25.178;2024-03-08T06:16:16;3.50;99.90
11559;DHT22;5835;42.930;25.178;2024-03-08T06:18:45;3.50;99.90
11559;DHT22;5835;42.930;25.178;2024-03-08T06:21:12;3.60;99.90
11559;DHT22;5835;42.930;25.178;2024-03-08T06:23:41;3.50;99.90
11559;DHT22;5835;42.930;25.178;2024-03-08T06:26:09;3.50;99.90
11559;DHT22;5835;42.930;25.178;2024-03-08T06:28:36;3.60;99.90
11559;DHT22;5835;42.930;25.178;2024-03-08T06:31:04;3.50;99.90
11559;DHT22;5835;42.930;25.178;2024-03-08T06:33:32;3.60;99.90
11559;DHT22;5835;42.930;25.178;2024-03-08T06:36:02;3.50;99.90
11559;DHT22;5835;42.930;25.178;2024-03-08T06:38:30;3.40;99.90
11559;DHT22;5835;42.930;25.178;2024-03-08T06:40:57;3.50;99.90
11559;DHT22;5835;42.930;25.178;2024-03-08T06:43:25;3.30;99.90
11559;DHT22;5835;42.930;25.178;2024-03-08T06:45:58;3.30;99.90
11559;DHT22;5835;42.930;25.178;2024-03-08T06:48:26;3.20;99.90
11559;DHT22;5835;42.930;25.178;2024-03-08T06:50:55;3.20;99.90
11559;DHT22;5835;42.930;25.178;2024-03-08T06:53:24;3.30;99.90
11559;DHT22;5835;42.930;25.178;2024-03-08T06:55:52;3.30;99.90
11559;DHT22;5835;42.930;25.178;2024-03-08T06:58:20;3.30;99.90
11559;DHT22;5835;42.930;25.178;2024-03-08T07:00:47;3.30;99.90
11559;DHT22;5835;42.930;25.178;2024-03-08T07:03:18;3.20;99.90
11559;DHT22;5835;42.930;25.178;2024-03-08T07:05:46;3.30;99.90
11559;DHT22;5835;42.930;25.178;2024-03-08T07:08:14;3.30;99.90
11559;DHT22;5835;42.930;25.178;2024-03-08T07:10:43;3.30;99.90
11559;DHT22;5835;42.930;25.178;2024-03-08T07:13:11;3.30;99.90
11559;DHT22;5835;42.930;25.178;2024-03-08T07:15:39;3.40;99.90
11559;DHT22;5835;42.930;25.178;2024-03-08T07:18:06;3.30;99.90
11559;DHT22;5835;42.930;25.178;2024-03-08T07:20:34;3.20;99.90
11559;DHT22;5835;42.930;25.178;2024-03-08T07:23:03;3.30;99.90
11559;DHT22;5835;42.930;25.178;2024-03-08T07:25:31;3.30;99.90
11559;DHT22;5835;42.930;25.178;2024-03-08T07:28:00;3.40;99.90
11559;DHT22;5835;42.930;25.178;2024-03-08T07:30:28;3.30;99.90
11559;DHT22;5835;42.930;25.178;2024-03-08T07:33:12;3.30;99.90
11559;DHT22;5835;42.930;25.178;2024-03-08T07:35:43;3.30;99.90
11559;DHT22;5835;42.930;25.178;2024-03-08T07:38:11;3.40;99.90
11559;DHT22;5835;42.930;25.178;2024-03-08T07:40:39;3.30;99.90
11559;DHT22;5835;42.930;25.178;2024-03-08T07:43:11;3.40;99.90
11559;DHT22;5835;42.930;25.178;2024-03-08T07:45:39;3.40;99.90
11559;DHT22;5835;42.930;25.178;2024-03-08T07:48:07;3.30;99.90
11559;DHT22;5835;42.930;25.178;2024-03-08T07:50:36;3.30;99.90
11559;DHT22;5835;42.930;25.178;2024-03-08T07:53:05;3.30;99.90
11559;DHT22;5835;42.930;25.178;2024-03-08T07:55:33;3.30;99.90
11559;DHT22;5835;42.930;25.178;2024-03-08T07:58:01;3.20;99.90
11559;DHT22;5835;42.930;25.178;2024-03-08T08:00:30;3.20;99.90
11559;DHT22;5835;42.930;25.178;2024-03-08T08:02:58;3.20;99.90
11559;DHT22;5835;42.930;25.178;2024-03-08T08:05:25;3.20;99.90
11559;DHT22;5835;42.930;25.178;2024-03-08T08:07:53;3.30;99.90
11559;DHT22;5835;42.930;25.178;2024-03-08T08:10:21;3.40;99.90
11559;DHT22;5835;42.930;25.178;2024-03-08T08:12:48;3.40;99.90
11559;DHT22;5835;42.930;25.178;2024-03-08T08:15:16;3.20;99.90
11559;DHT22;5835;42.930;25.178;2024-03-08T08:17:45;3.20;99.90
11559;DHT22;5835;42.930;25.178;2024-03-08T08:20:13;3.30;99.90
11559;DHT22;5835;42.930;25.178;2024-03-08T08:22:41;3.30;99.90
11559;DHT22;5835;42.930;25.178;2024-03-08T08:25:09;3.30;99.90
11559;DHT22;5835;42.930;25.178;2024-03-08T08:27:39;3.30;99.90
11559;DHT22;5835;42.930;25.178;2024-03-08T08:30:09;3.40;99.90
11559;DHT22;5835;42.930;25.178;2024-03-08T08:32:37;3.20;99.90
11559;DHT22;5835;42.930;25.178;2024-03-08T08:35:07;3.20;99.90
11559;DHT22;5835;42.930;25.178;2024-03-08T08:37:39;3.20;99.90
11559;DHT22;5835;42.930;25.178;2024-03-08T08:40:07;3.30;99.90
11559;DHT22;5835;42.930;25.178;2024-03-08T08:42:36;3.30;99.90
11559;DHT22;5835;42.930;25.178;2024-03-08T08:45:05;3.20;99.90
11559;DHT22;5835;42.930;25.178;2024-03-08T08:47:34;3.30;99.90
11559;DHT22;5835;42.930;25.178;2024-03-08T08:50:02;3.50;99.90
11559;DHT22;5835;42.930;25.178;2024-03-08T08:52:32;3.50;99.90
11559;DHT22;5835;42.930;25.178;2024-03-08T08:55:00;3.40;99.90
11559;DHT22;5835;42.930;25.178;2024-03-08T08:57:29;3.50;99.90
11559;DHT22;5835;42.930;25.178;2024-03-08T08:59:58;3.60;99.90
11559;DHT22;5835;42.930;25.178;2024-03-08T09:02:26;3.40;99.90
11559;DHT22;5835;42.930;25.178;2024-03-08T09:04:53;3.30;99.90
11559;DHT22;5835;42.930;25.178;2024-03-08T09:07:21;3.40;99.90
11559;DHT22;5835;42.930;25.178;2024-03-08T09:09:50;3.40;99.90
11559;DHT22;5835;42.930;25.178;2024-03-08T09:12:18;3.50;99.90
11559;DHT22;5835;42.930;25.178;2024-03-08T09:14:46;3.50;99.90
11559;DHT22;5835;42.930;25.178;2024-03-08T09:17:13;3.60;99.90
11559;DHT22;5835;42.930;25.178;2024-03-08T09:19:43;3.60;99.90
11559;DHT22;5835;42.930;25.178;2024-03-08T09:22:10;3.70;99.90
11559;DHT22;5835;42.930;25.178;2024-03-08T09:24:38;3.70;99.90
11559;DHT22;5835;42.930;25.178;2024-03-08T09:27:07;3.60;99.90
11559;DHT22;5835;42.930;25.178;2024-03-08T09:29:35;3.80;99.90
11559;DHT22;5835;42.930;25.178;2024-03-08T09:32:03;3.70;99.90
11559;DHT22;5835;42.930;25.178;2024-03-08T09:34:30;3.60;99.90
11559;DHT22;5835;42.930;25.178;2024-03-08T09:36:58;3.70;99.90
11559;DHT22;5835;42.930;25.178;2024-03-08T09:39:27;3.60;99.90
11559;DHT22;5835;42.930;25.178;2024-03-08T09:41:54;3.70;99.90
11559;DHT22;5835;42.930;25.178;2024-03-08T09:44:23;3.80;99.90
11559;DHT22;5835;42.930;25.178;2024-03-08T09:46:55;3.70;99.90
11559;DHT22;5835;42.930;25.178;2024-03-08T09:49:24;3.70;99.90
11559;DHT22;5835;42.930;25.178;2024-03-08T09:51:51;3.70;99.90
11559;DHT22;5835;42.930;25.178;2024-03-08T09:54:19;3.60;99.90
11559;DHT22;5835;42.930;25.178;2024-03-08T09:56:49;3.70;99.90
11559;DHT22;5835;42.930;25.178;2024-03-08T09:59:17;3.80;99.90
11559;DHT22;5835;42.930;25.178;2024-03-08T10:02:14;3.70;99.90
11559;DHT22;5835;42.930;25.178;2024-03-08T10:04:43;3.70;99.90
11559;DHT22;5835;42.930;25.178;2024-03-08T10:07:12;3.60;99.90
11559;DHT22;5835;42.930;25.178;2024-03-08T10:09:39;3.60;99.90
11559;DHT22;5835;42.930;25.178;2024-03-08T10:12:08;3.70;99.90
11559;DHT22;5835;42.930;25.178;2024-03-08T10:14:40;3.60;99.90
11559;DHT22;5835;42.930;25.178;2024-03-08T10:17:08;3.60;99.90
11559;DHT22;5835;42.930;25.178;2024-03-08T10:19:37;3.70;99.90
11559;DHT22;5835;42.930;25.178;2024-03-08T10:22:05;3.80;99.90
11559;DHT22;5835;42.930;25.178;2024-03-08T10:24:33;3.80;99.90
11559;DHT22;5835;42.930;25.178;2024-03-08T10:27:01;3.70;99.90
11559;DHT22;5835;42.930;25.178;2024-03-08T10:29:31;3.70;99.90
11559;DHT22;5835;42.930;25.178;2024-03-08T10:31:59;3.80;99.90
11559;DHT22;5835;42.930;25.178;2024-03-08T10:34:26;3.90;99.90
11559;DHT22;5835;42.930;25.178;2024-03-08T10:37:01;3.80;99.90
11559;DHT22;5835;42.930;25.178;2024-03-08T10:39:35;3.90;99.90
11559;DHT22;5835;42.930;25.178;2024-03-08T10:42:04;3.70;99.90
11559;DHT22;5835;42.930;25.178;2024-03-08T10:44:49;3.80;99.90
11559;DHT22;5835;42.930;25.178;2024-03-08T10:47:20;3.80;99.90
11559;DHT22;5835;42.930;25.178;2024-03-08T10:49:59;3.70;99.90
11559;DHT22;5835;42.930;25.178;2024-03-08T10:52:31;3.70;99.90
11559;DHT22;5835;42.930;25.178;2024-03-08T10:55:01;3.70;99.90
11559;DHT22;5835;42.930;25.178;2024-03-08T10:57:29;3.70;99.90
11559;DHT22;5835;42.930;25.178;2024-03-08T10:59:58;3.70;99.90
11559;DHT22;5835;42.930;25.178;2024-03-08T11:02:26;3.90;99.90
11559;DHT22;5835;42.930;25.178;2024-03-08T11:04:54;3.80;99.90
11559;DHT22;5835;42.930;25.178;2024-03-08T11:07:22;3.90;99.90
11559;DHT22;5835;42.930;25.178;2024-03-08T11:09:52;4.00;99.90
11559;DHT22;5835;42.930;25.178;2024-03-08T11:12:22;3.70;99.90
11559;DHT22;5835;42.930;25.178;2024-03-08T11:14:52;3.70;99.90
11559;DHT22;5835;42.930;25.178;2024-03-08T11:17:40;3.80;99.90
11559;DHT22;5835;42.930;25.178;2024-03-08T11:20:10;3.70;99.90
11559;DHT22;5835;42.930;25.178;2024-03-08T11:22:41;3.80;99.90
11559;DHT22;5835;42.930;25.178;2024-03-08T11:25:32;3.90;99.90
11559;DHT22;5835;42.930;25.178;2024-03-08T11:28:12;3.90;99.90
11559;DHT22;5835;42.930;25.178;2024-03-08T11:30:47;3.80;99.90
11559;DHT22;5835;42.930;25.178;2024-03-08T11:33:36;3.80;99.90
11559;DHT22;5835;42.930;25.178;2024-03-08T11:36:08;3.80;99.90
11559;DHT22;5835;42.930;25.178;2024-03-08T11:38:40;3.90;99.90
11559;DHT22;5835;42.930;25.178;2024-03-08T11:41:11;3.80;99.90
11559;DHT22;5835;42.930;25.178;2024-03-08T11:43:40;3.70;99.90
11559;DHT22;5835;42.930;25.178;2024-03-08T11:46:08;3.80;99.90
11559;DHT22;5835;42.930;25.178;2024-03-08T11:48:36;3.80;99.90
11559;DHT22;5835;42.930;25.178;2024-03-08T11:51:04;3.70;99.90
11559;DHT22;5835;42.930;25.178;2024-03-08T11:53:32;3.80;99.90
11559;DHT22;5835;42.930;25.178;2024-03-08T11:56:06;3.80;99.90
11559;DHT22;5835;42.930;25.178;2024-03-08T11:58:36;3.70;99.90
11559;DHT22;5835;42.930;25.178;2024-03-08T12:01:04;3.80;99.90
11559;DHT22;5835;42.930;25.178;2024-03-08T12:03:33;3.90;99.90
11559;DHT22;5835;42.930;25.178;2024-03-08T12:06:01;3.70;99.90
11559;DHT22;5835;42.930;25.178;2024-03-08T12:08:30;3.80;99.90
11559;DHT22;5835;42.930;25.178;2024-03-08T12:10:58;3.80;99.90
11559;DHT22;5835;42.930;25.178;2024-03-08T12:13:27;3.70;99.90
11559;DHT22;5835;42.930;25.178;2024-03-08T12:15:59;3.90;99.90
11559;DHT22;5835;42.930;25.178;2024-03-08T12:18:27;3.80;99.90
11559;DHT22;5835;42.930;25.178;2024-03-08T12:21:07;3.80;99.90
11559;DHT22;5835;42.930;25.178;2024-03-08T12:23:36;3.70;99.90
11559;DHT22;5835;42.930;25.178;2024-03-08T12:26:12;3.80;99.90
11559;DHT22;5835;42.930;25.178;2024-03-08T12:28:43;3.70;99.90
11559;DHT22;5835;42.930;25.178;2024-03-08T12:31:13;3.80;99.90
11559;DHT22;5835;42.930;25.178;2024-03-08T12:33:49;3.80;99.90
11559;DHT22;5835;42.930;25.178;2024-03-08T12:36:17;3.80;99.90
11559;DHT22;5835;42.930;25.178;2024-03-08T12:38:45;3.80;99.90
11559;DHT22;5835;42.930;25.178;2024-03-08T12:41:14;3.80;99.90
11559;DHT22;5835;42.930;25.178;2024-03-08T12:43:43;3.80;99.90
11559;DHT22;5835;42.930;25.178;2024-03-08T12:46:16;3.80;99.90
11559;DHT22;5835;42.930;25.178;2024-03-08T12:48:43;3.70;99.90
11559;DHT22;5835;42.930;25.178;2024-03-08T12:51:12;3.80;99.90
11559;DHT22;5835;42.930;25.178;2024-03-08T12:53:41;3.80;99.90
11559;DHT22;5835;42.930;25.178;2024-03-08T12:56:10;3.80;99.90
11559;DHT22;5835;42.930;25.178;2024-03-08T12:58:38;3.80;99.90
11559;DHT22;5835;42.930;25.178;2024-03-08T13:01:06;3.70;99.90
11559;DHT22;5835;42.930;25.178;2024-03-08T13:03:36;3.80;99.90
11559;DHT22;5835;42.930;25.178;2024-03-08T13:06:04;3.70;99.90
11559;DHT22;5835;42.930;25.178;2024-03-08T13:08:34;3.70;99.90
11559;DHT22;5835;42.930;25.178;2024-03-08T13:11:04;3.70;99.90
11559;DHT22;5835;42.930;25.178;2024-03-08T13:13:33;3.60;99.90
11559;DHT22;5835;42.930;25.178;2024-03-08T13:16:02;3.70;99.90
11559;DHT22;5835;42.930;25.178;2024-03-08T13:18:35;3.60;99.90
11559;DHT22;5835;42.930;25.178;2024-03-08T13:21:03;3.60;99.90
11559;DHT22;5835;42.930;25.178;2024-03-08T13:23:33;3.60;99.90
11559;DHT22;5835;42.930;25.178;2024-03-08T13:26:05;3.60;99.90
11559;DHT22;5835;42.930;25.178;2024-03-08T13:28:33;3.70;99.90
11559;DHT22;5835;42.930;25.178;2024-03-08T13:31:03;3.70;99.90
11559;DHT22;5835;42.930;25.178;2024-03-08T13:33:32;3.70;99.90
11559;DHT22;5835;42.930;25.178;2024-03-08T13:36:04;3.60;99.90
11559;DHT22;5835;42.930;25.178;2024-03-08T13:38:32;3.60;99.90
11559;DHT22;5835;42.930;25.178;2024-03-08T13:41:02;3.70;99.90
11559;DHT22;5835;42.930;25.178;2024-03-08T13:43:29;3.60;99.90
11559;DHT22;5835;42.930;25.178;2024-03-08T13:46:00;3.40;99.90
11559;DHT22;5835;42.930;25.178;2024-03-08T13:48:27;3.50;99.90
11559;DHT22;5835;42.930;25.178;2024-03-08T13:50:55;3.60;99.90
11559;DHT22;5835;42.930;25.178;2024-03-08T13:53:24;3.60;99.90
11559;DHT22;5835;42.930;25.178;2024-03-08T13:55:51;3.60;99.90
11559;DHT22;5835;42.930;25.178;2024-03-08T13:58:19;3.60;99.90
11559;DHT22;5835;42.930;25.178;2024-03-08T14:00:47;3.50;99.90
11559;DHT22;5835;42.930;25.178;2024-03-08T14:03:15;3.60;99.90
11559;DHT22;5835;42.930;25.178;2024-03-08T14:05:43;3.60;99.90
11559;DHT22;5835;42.930;25.178;2024-03-08T14:08:11;3.60;99.90
11559;DHT22;5835;42.930;25.178;2024-03-08T14:10:41;3.60;99.90
11559;DHT22;5835;42.930;25.178;2024-03-08T14:13:09;3.60;99.90
11559;DHT22;5835;42.930;25.178;2024-03-08T14:15:37;3.60;99.90
11559;DHT22;5835;42.930;25.178;2024-03-08T14:18:08;3.60;99.90
11559;DHT22;5835;42.930;25.178;2024-03-08T14:20:35;3.60;99.90
11559;DHT22;5835;42.930;25.178;2024-03-08T14:23:03;3.50;99.90
11559;DHT22;5835;42.930;25.178;2024-03-08T14:25:32;3.50;99.90
11559;DHT22;5835;42.930;25.178;2024-03-08T14:28:01;3.60;99.90
11559;DHT22;5835;42.930;25.178;2024-03-08T14:30:32;3.60;99.90
11559;DHT22;5835;42.930;25.178;2024-03-08T14:33:01;3.60;99.90
11559;DHT22;5835;42.930;25.178;2024-03-08T14:35:29;3.60;99.90
11559;DHT22;5835;42.930;25.178;2024-03-08T14:37:56;3.70;99.90
11559;DHT22;5835;42.930;25.178;2024-03-08T14:40:24;3.70;99.90
11559;DHT22;5835;42.930;25.178;2024-03-08T14:42:53;3.70;99.90
11559;DHT22;5835;42.930;25.178;2024-03-08T14:45:23;3.70;99.90
11559;DHT22;5835;42.930;25.178;2024-03-08T14:47:52;3.70;99.90
11559;DHT22;5835;42.930;25.178;2024-03-08T14:50:22;3.80;99.90
11559;DHT22;5835;42.930;25.178;2024-03-08T14:52:51;3.60;99.90
11559;DHT22;5835;42.930;25.178;2024-03-08T14:55:20;3.60;99.90
11559;DHT22;5835;42.930;25.178;2024-03-08T14:57:48;3.70;99.90
11559;DHT22;5835;42.930;25.178;2024-03-08T15:00:18;3.60;99.90
11559;DHT22;5835;42.930;25.178;2024-03-08T15:02:54;3.60;99.90
11559;DHT22;5835;42.930;25.178;2024-03-08T15:05:25;3.60;99.90
11559;DHT22;5835;42.930;25.178;2024-03-08T15:07:53;3.60;99.90
11559;DHT22;5835;42.930;25.178;2024-03-08T15:10:21;3.50;99.90
11559;DHT22;5835;42.930;25.178;2024-03-08T15:12:51;3.50;99.90
11559;DHT22;5835;42.930;25.178;2024-03-08T15:15:21;3.50;99.90
11559;DHT22;5835;42.930;25.178;2024-03-08T15:17:51;3.50;99.90
11559;DHT22;5835;42.930;25.178;2024-03-08T15:20:24;3.50;99.90
11559;DHT22;5835;42.930;25.178;2024-03-08T15:22:55;3.50;99.90
11559;DHT22;5835;42.930;25.178;2024-03-08T15:25:24;3.50;99.90
11559;DHT22;5835;42.930;25.178;2024-03-08T15:27:52;3.60;99.90
11559;DHT22;5835;42.930;25.178;2024-03-08T15:30:20;3.50;99.90
11559;DHT22;5835;42.930;25.178;2024-03-08T15:32:52;3.50;99.90
11559;DHT22;5835;42.930;25.178;2024-03-08T15:35:24;3.50;99.90
11559;DHT22;5835;42.930;25.178;2024-03-08T15:37:51;3.50;99.90
11559;DHT22;5835;42.930;25.178;2024-03-08T15:40:21;3.50;99.90
11559;DHT22;5835;42.930;25.178;2024-03-08T15:42:54;3.60;99.90
11559;DHT22;5835;42.930;25.178;2024-03-08T15:45:22;3.50;99.90
11559;DHT22;5835;42.930;25.178;2024-03-08T15:47:50;3.50;99.90
11559;DHT22;5835;42.930;25.178;2024-03-08T15:50:18;3.50;99.90
11559;DHT22;5835;42.930;25.178;2024-03-08T15:52:50;3.50;99.90
11559;DHT22;5835;42.930;25.178;2024-03-08T15:55:19;3.60;99.90
11559;DHT22;5835;42.930;25.178;2024-03-08T15:57:49;3.60;99.90
11559;DHT22;5835;42.930;25.178;2024-03-08T16:00:18;3.50;99.90